createdAt,value
2024-05-09T00:00:39.890Z,96649.91
2024-05-09T00:03:08.368Z,96693.00
2024-05-09T00:05:36.921Z,96670.81
2024-05-09T00:08:04.381Z,96681.38
2024-05-09T00:10:36.378Z,96689.06
2024-05-09T00:13:06.293Z,96680.59
2024-05-09T00:15:33.939Z,96675.34
2024-05-09T00:18:01.253Z,96675.34
2024-05-09T00:20:36.458Z,96660.00
2024-05-09T00:23:11.076Z,96672.16
2024-05-09T00:25:39.019Z,96675.31
2024-05-09T00:28:06.221Z,96657.88
2024-05-09T00:30:35.497Z,96671.63
2024-05-09T00:33:08.253Z,96665.28
2024-05-09T00:35:36.559Z,96672.94
2024-05-09T00:38:03.978Z,96670.06
2024-05-09T00:40:41.632Z,96659.50
2024-05-09T00:43:14.594Z,96646.03
2024-05-09T00:45:42.339Z,96654.72
2024-05-09T00:48:13.426Z,96665.31
2024-05-09T00:50:43.449Z,96651.03
2024-05-09T00:53:11.665Z,96652.09
2024-05-09T00:55:40.174Z,96660.28
2024-05-09T00:58:09.569Z,96648.94
2024-05-09T01:00:39.917Z,96663.44
2024-05-09T01:03:10.291Z,96653.13
2024-05-09T01:05:39.584Z,96648.13
2024-05-09T01:08:07.352Z,96652.34
2024-05-09T01:10:35.589Z,96658.16
2024-05-09T01:13:04.253Z,96655.25
2024-05-09T01:15:31.382Z,96662.63
2024-05-09T01:18:00.901Z,96659.47
2024-05-09T01:20:37.251Z,96652.59
2024-05-09T01:23:09.941Z,96665.28
2024-05-09T01:25:37.129Z,96645.72
2024-05-09T01:28:03.937Z,96651.00
2024-05-09T01:30:34.993Z,96643.34
2024-05-09T01:33:05.638Z,96650.75
2024-05-09T01:35:33.722Z,96667.09
2024-05-09T01:38:00.496Z,96644.41
2024-05-09T01:40:36.345Z,96640.69
2024-05-09T01:43:06.092Z,96651.03
2024-05-09T01:45:32.909Z,96654.69
2024-05-09T01:47:59.882Z,96656.03
2024-05-09T01:50:37.959Z,96656.81
2024-05-09T01:53:09.627Z,96658.66
2024-05-09T01:55:36.476Z,96644.91
2024-05-09T01:58:03.129Z,96668.44
2024-05-09T02:00:38.361Z,96666.06
2024-05-09T02:03:12.663Z,96662.88
2024-05-09T02:05:42.854Z,96658.38
2024-05-09T02:08:20.962Z,96667.09
2024-05-09T02:10:49.333Z,96654.69
2024-05-09T02:13:20.246Z,96676.09
2024-05-09T02:15:46.984Z,96654.44
2024-05-09T02:18:14.253Z,96659.19
2024-05-09T02:20:42.375Z,96658.94
2024-05-09T02:23:09.956Z,96661.84
2024-05-09T02:25:36.990Z,96658.38
2024-05-09T02:28:03.762Z,96655.75
2024-05-09T02:30:38.711Z,96658.38
2024-05-09T02:33:13.009Z,96648.09
2024-05-09T02:35:41.400Z,96643.09
2024-05-09T02:38:09.451Z,96665.28
2024-05-09T02:40:38.605Z,96656.31
2024-05-09T02:43:09.066Z,96652.31
2024-05-09T02:45:37.089Z,96643.06
2024-05-09T02:48:04.165Z,96638.31
2024-05-09T02:50:37.792Z,96650.75
2024-05-09T02:53:13.841Z,96666.59
2024-05-09T02:55:41.927Z,96640.97
2024-05-09T02:58:09.228Z,96657.09
2024-05-09T03:00:39.980Z,96642.81
2024-05-09T03:03:14.187Z,96657.88
2024-05-09T03:05:43.376Z,96650.47
2024-05-09T03:08:10.286Z,96639.94
2024-05-09T03:10:38.724Z,96652.88
2024-05-09T03:13:12.765Z,96657.38
2024-05-09T03:15:40.663Z,96648.91
2024-05-09T03:18:07.639Z,96644.94
2024-05-09T03:20:36.139Z,96652.06
2024-05-09T03:23:05.200Z,96639.94
2024-05-09T03:25:32.373Z,96661.06
2024-05-09T03:27:59.428Z,96660.53
2024-05-09T03:30:38.093Z,96647.84
2024-05-09T03:33:17.671Z,96659.72
2024-05-09T03:35:46.038Z,96656.03
2024-05-09T03:38:12.807Z,96661.06
2024-05-09T03:40:47.411Z,96658.66
2024-05-09T03:43:14.833Z,96657.38
2024-05-09T03:45:45.621Z,96646.81
2024-05-09T03:48:13.018Z,96644.41
2024-05-09T03:50:39.868Z,96630.44
2024-05-09T03:53:10.567Z,96658.13
2024-05-09T03:55:37.279Z,96642.81
2024-05-09T03:58:14.825Z,96643.63
2024-05-09T04:00:42.443Z,96650.19
2024-05-09T04:03:11.401Z,96670.81
2024-05-09T04:05:42.093Z,96673.72
2024-05-09T04:08:10.263Z,96651.78
2024-05-09T04:10:37.277Z,96670.28
2024-05-09T04:13:04.403Z,96661.84
2024-05-09T04:15:31.464Z,96643.34
2024-05-09T04:17:58.463Z,96668.41
2024-05-09T04:20:35.874Z,96660.47
2024-05-09T04:23:07.241Z,96671.59
2024-05-09T04:25:35.148Z,96674.50
2024-05-09T04:28:01.819Z,96679.25
2024-05-09T04:30:37.383Z,96671.59
2024-05-09T04:33:09.276Z,96672.63
2024-05-09T04:35:38.426Z,96682.66
2024-05-09T04:38:05.749Z,96676.09
2024-05-09T04:40:36.965Z,96680.56
2024-05-09T04:43:14.497Z,96693.78
2024-05-09T04:45:43.254Z,96686.88
2024-05-09T04:48:10.205Z,96690.84
2024-05-09T04:50:39.058Z,96676.84
2024-05-09T04:53:09.267Z,96700.88
2024-05-09T04:55:37.417Z,96678.16
2024-05-09T04:58:05.278Z,96704.34
2024-05-09T05:00:37.148Z,96696.66
2024-05-09T05:03:13.896Z,96647.78
2024-05-09T05:05:44.043Z,96685.56
2024-05-09T05:08:13.241Z,96645.13
2024-05-09T05:10:40.788Z,96692.72
2024-05-09T05:13:18.249Z,96630.63
2024-05-09T05:15:46.454Z,96690.63
2024-05-09T05:18:15.155Z,96693.28
2024-05-09T05:20:42.266Z,96704.88
2024-05-09T05:23:14.212Z,96706.50
2024-05-09T05:25:41.983Z,96699.06
2024-05-09T05:28:08.662Z,96687.47
2024-05-09T05:30:39.245Z,96688.00
2024-05-09T05:33:07.168Z,96713.34
2024-05-09T05:35:34.803Z,96701.47
2024-05-09T05:38:02.273Z,96711.78
2024-05-09T05:40:36.203Z,96701.47
2024-05-09T05:43:18.569Z,96700.69
2024-05-09T05:45:47.302Z,96699.63
2024-05-09T05:48:16.848Z,96717.31
2024-05-09T05:50:45.156Z,96716.28
2024-05-09T05:53:12.170Z,96707.56
2024-05-09T05:55:40.419Z,96722.88
2024-05-09T05:58:12.040Z,96722.34
2024-05-09T06:00:41.553Z,96721.31
2024-05-09T06:03:10.220Z,96727.13
2024-05-09T06:05:39.808Z,96705.44
2024-05-09T06:08:07.346Z,96705.47
2024-05-09T06:10:38.854Z,96688.00
2024-05-09T06:13:10.486Z,96710.47
2024-05-09T06:15:37.259Z,96709.69
2024-05-09T06:18:09.073Z,96717.88
2024-05-09T06:20:38.116Z,96711.28
2024-05-09T06:23:06.965Z,96721.84
2024-05-09T06:25:35.017Z,96709.16
2024-05-09T06:28:02.053Z,96714.41
2024-05-09T06:30:37.182Z,96710.22
2024-05-09T06:33:07.817Z,96704.66
2024-05-09T06:35:35.320Z,96704.38
2024-05-09T06:38:02.592Z,96706.75
2024-05-09T06:40:37.081Z,96703.56
2024-05-09T06:43:11.297Z,96675.56
2024-05-09T06:45:39.684Z,96696.41
2024-05-09T06:48:07.464Z,96705.63
2024-05-09T06:50:37.889Z,96720.41
2024-05-09T06:53:06.305Z,96712.19
2024-05-09T06:55:34.182Z,96713.78
2024-05-09T06:58:00.957Z,96722.50
2024-05-09T07:00:35.380Z,96706.38
2024-05-09T07:03:16.052Z,96722.41
2024-05-09T07:05:45.461Z,96720.22
2024-05-09T07:08:13.251Z,96718.56
2024-05-09T07:10:40.027Z,96725.69
2024-05-09T07:13:14.273Z,96732.06
2024-05-09T07:15:42.047Z,96724.63
2024-05-09T07:18:13.936Z,96723.56
2024-05-09T07:20:42.184Z,96721.41
2024-05-09T07:23:10.619Z,96727.75
2024-05-09T07:25:37.792Z,96709.25
2024-05-09T07:28:04.840Z,96721.00
2024-05-09T07:30:34.329Z,96714.31
2024-05-09T07:33:05.371Z,96727.44
2024-05-09T07:35:32.447Z,96725.81
2024-05-09T07:37:59.505Z,96729.59
2024-05-09T07:40:33.296Z,96734.53
2024-05-09T07:43:13.239Z,96679.44
2024-05-09T07:45:49.894Z,96682.63
2024-05-09T07:53:39.233Z,96699.72
2024-05-09T07:56:13.844Z,96694.50
2024-05-09T07:58:43.382Z,96712.09
2024-05-09T08:01:12.207Z,96709.59
2024-05-09T08:03:39.162Z,96704.38
2024-05-09T08:06:09.008Z,96706.78
2024-05-09T08:08:35.669Z,96708.34
2024-05-09T08:11:02.955Z,96716.94
2024-05-09T08:13:29.708Z,96710.63
2024-05-09T08:15:56.448Z,96712.66
2024-05-09T08:18:23.438Z,96719.75
2024-05-09T08:20:51.867Z,96719.66
2024-05-09T08:23:19.526Z,96719.78
2024-05-09T08:25:46.241Z,96712.66
2024-05-09T08:28:13.083Z,96723.81
2024-05-09T08:30:40.089Z,96714.59
2024-05-09T08:33:07.770Z,96725.97
2024-05-09T08:35:35.324Z,96724.50
2024-05-09T08:38:06.784Z,96713.09
2024-05-09T08:40:36.453Z,96705.00
2024-05-09T08:43:10.460Z,96706.41
2024-05-09T08:45:42.695Z,96685.78
2024-05-09T08:48:12.412Z,96664.91
2024-05-09T08:50:40.952Z,96675.28
2024-05-09T08:53:08.574Z,96693.00
2024-05-09T08:55:40.170Z,96692.16
2024-05-09T08:58:12.740Z,96702.56
2024-05-09T09:00:41.974Z,96695.91
2024-05-09T09:03:12.783Z,96698.97
2024-05-09T09:05:40.890Z,96688.50
2024-05-09T09:08:08.747Z,96687.81
2024-05-09T09:10:36.104Z,96698.75
2024-05-09T09:13:09.620Z,96713.22
2024-05-09T09:15:50.009Z,96692.41
2024-05-09T09:18:19.867Z,96695.44
2024-05-09T09:20:46.737Z,96702.28
2024-05-09T09:23:14.109Z,96660.97
2024-05-09T09:25:40.977Z,96687.59
2024-05-09T09:28:12.681Z,96714.28
2024-05-09T09:30:40.975Z,96690.63
2024-05-09T09:33:12.009Z,96699.56
2024-05-09T09:35:41.988Z,96710.03
2024-05-09T09:38:10.641Z,96710.84
2024-05-09T09:40:44.970Z,96714.13
2024-05-09T09:43:22.101Z,96716.31
2024-05-09T09:45:51.546Z,96688.97
2024-05-09T09:48:20.284Z,96701.88
2024-05-09T09:50:55.266Z,96708.63
2024-05-09T09:53:23.171Z,96693.28
2024-05-09T09:55:53.532Z,96715.50
2024-05-09T09:58:21.566Z,96718.78
2024-05-09T10:00:48.520Z,96711.41
2024-05-09T10:03:16.188Z,96710.19
2024-05-09T10:05:46.414Z,96702.13
2024-05-09T10:08:18.203Z,96717.63
2024-05-09T10:10:48.281Z,96707.13
2024-05-09T10:13:15.208Z,96716.31
2024-05-09T10:15:53.177Z,96708.44
2024-05-09T10:18:46.767Z,96714.19
2024-05-09T10:21:19.471Z,96707.59
2024-05-09T10:24:03.495Z,96708.00
2024-05-09T10:26:34.372Z,96699.56
2024-05-09T10:29:14.139Z,96697.41
2024-05-09T10:31:42.510Z,96694.25
2024-05-09T10:34:20.862Z,96712.13
2024-05-09T10:36:55.228Z,96707.13
2024-05-09T10:39:22.425Z,96697.34
2024-05-09T10:41:57.490Z,96694.41
2024-05-09T10:44:24.180Z,96697.28
2024-05-09T10:46:53.748Z,96707.78
2024-05-09T10:49:21.714Z,96691.47
2024-05-09T10:51:48.763Z,96699.94
2024-05-09T10:54:15.716Z,96679.00
2024-05-09T10:56:42.421Z,96683.97
2024-05-09T10:59:09.015Z,96697.38
2024-05-09T11:01:36.532Z,96698.38
2024-05-09T11:04:04.079Z,96677.88
2024-05-09T11:06:31.140Z,96675.66
2024-05-09T11:08:58.100Z,96678.94
2024-05-09T11:11:26.984Z,96677.94
2024-05-09T11:13:53.628Z,96683.19
2024-05-09T11:16:21.385Z,96679.22
2024-05-09T11:18:56.414Z,96688.72
2024-05-09T11:21:24.275Z,96690.22
2024-05-09T11:23:51.327Z,96666.16
2024-05-09T11:26:21.453Z,96659.38
2024-05-09T11:28:48.260Z,96667.03
2024-05-09T11:31:14.941Z,96680.44
2024-05-09T11:33:47.751Z,96666.16
2024-05-09T11:36:15.047Z,96664.50
2024-05-09T11:38:41.884Z,96689.94
2024-05-09T11:41:08.636Z,96674.22
2024-05-09T11:43:35.288Z,96685.34
2024-05-09T11:46:06.216Z,96687.41
2024-05-09T11:48:33.025Z,96664.72
2024-05-09T11:50:59.771Z,96688.63
2024-05-09T11:53:26.403Z,96688.22
2024-05-09T11:55:53.376Z,96671.91
2024-05-09T11:58:21.428Z,96670.03
2024-05-09T12:00:48.382Z,96674.72
2024-05-09T12:03:15.237Z,96674.22
2024-05-09T12:05:42.189Z,96670.75
2024-05-09T12:08:10.062Z,96668.47
2024-05-09T12:11:02.608Z,96681.81
2024-05-09T12:13:29.288Z,96650.72
2024-05-09T12:15:56.046Z,96661.00
2024-05-09T12:18:24.811Z,96667.88
2024-05-09T12:20:51.432Z,96646.50
2024-05-09T12:23:22.179Z,96646.56
2024-05-09T12:25:49.855Z,96646.81
2024-05-09T12:28:16.809Z,96648.38
2024-05-09T12:30:43.724Z,96649.25
2024-05-09T12:33:12.535Z,96657.13
2024-05-09T12:35:41.759Z,96655.41
2024-05-09T12:38:09.808Z,96628.50
2024-05-09T12:40:38.640Z,96647.25
2024-05-09T12:43:08.111Z,96643.00
2024-05-09T12:45:36.019Z,96643.53
2024-05-09T12:48:06.874Z,96636.63
2024-05-09T12:51:01.711Z,96646.41
2024-05-09T12:53:28.347Z,96644.97
2024-05-09T12:55:59.930Z,96631.38
2024-05-09T12:58:29.055Z,96636.47
2024-05-09T13:00:55.830Z,96641.59
2024-05-09T13:03:22.784Z,96626.94
2024-05-09T13:05:50.655Z,96629.69
2024-05-09T13:08:17.680Z,96604.56
2024-05-09T13:10:44.522Z,96626.94
2024-05-09T13:13:11.590Z,96599.34
2024-05-09T13:15:41.876Z,96606.81
2024-05-09T13:18:11.861Z,96591.44
2024-05-09T13:20:38.505Z,96611.16
2024-05-09T13:23:07.846Z,96609.00
2024-05-09T13:25:38.383Z,96603.28
2024-05-09T13:28:06.000Z,96601.69
2024-05-09T13:30:39.398Z,96601.13
2024-05-09T13:33:11.687Z,96589.09
2024-05-09T13:35:40.763Z,96571.72
2024-05-09T13:38:08.807Z,96575.09
2024-05-09T13:40:36.580Z,96555.63
2024-05-09T13:43:04.903Z,96591.94
2024-05-09T13:45:32.273Z,96569.47
2024-05-09T13:48:06.544Z,96587.03
2024-05-09T13:50:36.607Z,96579.59
2024-05-09T13:53:08.406Z,96585.16
2024-05-09T13:55:40.086Z,96575.47
2024-05-09T13:58:08.142Z,96578.63
2024-05-09T14:00:44.860Z,96565.06
2024-05-09T14:03:20.819Z,96573.91
2024-05-09T14:05:54.443Z,96575.69
2024-05-09T14:08:22.791Z,96557.84
2024-05-09T14:10:51.448Z,96576.81
2024-05-09T14:13:18.503Z,96549.09
2024-05-09T14:15:46.833Z,96545.38
2024-05-09T14:18:14.440Z,96557.59
2024-05-09T14:20:46.776Z,96558.84
2024-05-09T14:23:14.391Z,96560.41
2024-05-09T14:25:43.004Z,96545.53
2024-05-09T14:28:21.922Z,96540.50
2024-05-09T14:30:51.761Z,96543.00
2024-05-09T14:33:23.670Z,96542.88
2024-05-09T14:35:50.523Z,96544.38
2024-05-09T14:38:18.298Z,96544.28
2024-05-09T14:40:44.992Z,96538.97
2024-05-09T14:43:13.456Z,96530.69
2024-05-09T14:45:40.942Z,96531.41
2024-05-09T14:48:09.860Z,96534.69
2024-05-09T14:50:39.250Z,96542.66
2024-05-09T14:53:08.151Z,96536.84
2024-05-09T14:55:38.190Z,96534.44
2024-05-09T14:58:07.321Z,96526.91
2024-05-09T15:00:41.680Z,96525.28
2024-05-09T15:03:11.738Z,96527.16
2024-05-09T15:05:38.829Z,96534.06
2024-05-09T15:08:07.006Z,96528.25
2024-05-09T15:10:36.192Z,96522.69
2024-05-09T15:13:04.682Z,96511.09
2024-05-09T15:15:31.609Z,96517.56
2024-05-09T15:17:59.085Z,96516.69
2024-05-09T15:20:33.202Z,96506.53
2024-05-09T15:23:02.902Z,96523.16
2024-05-09T15:25:29.875Z,96524.03
2024-05-09T15:27:56.911Z,96514.38
2024-05-09T15:30:30.894Z,96504.03
2024-05-09T15:33:00.899Z,96526.13
2024-05-09T15:35:27.947Z,96518.50
2024-05-09T15:37:55.063Z,96511.56
2024-05-09T15:40:31.033Z,96513.97
2024-05-09T15:43:05.707Z,96498.72
2024-05-09T15:45:32.672Z,96496.34
2024-05-09T15:48:00.317Z,96502.41
2024-05-09T15:50:35.948Z,96506.59
2024-05-09T15:53:06.992Z,96499.75
2024-05-09T15:55:34.917Z,96506.16
2024-05-09T15:58:03.198Z,96492.56
2024-05-09T16:00:37.551Z,96497.78
2024-05-09T16:03:08.627Z,96500.81
2024-05-09T16:05:35.600Z,96506.91
2024-05-09T16:08:02.823Z,96505.69
2024-05-09T16:10:32.959Z,96507.69
2024-05-09T16:13:02.286Z,96505.84
2024-05-09T16:15:29.681Z,96498.78
2024-05-09T16:17:59.322Z,96490.81
2024-05-09T16:20:34.799Z,96489.88
2024-05-09T16:23:06.584Z,96486.91
2024-05-09T16:25:33.439Z,96479.38
2024-05-09T16:28:01.750Z,96487.22
2024-05-09T16:30:34.507Z,96475.41
2024-05-09T16:33:04.273Z,96482.69
2024-05-09T16:35:31.940Z,96471.66
2024-05-09T16:37:58.735Z,96482.81
2024-05-09T16:40:34.391Z,96478.88
2024-05-09T16:43:06.288Z,96472.56
2024-05-09T16:45:33.454Z,96469.91
2024-05-09T16:48:01.490Z,96473.06
2024-05-09T16:50:32.809Z,96479.00
2024-05-09T16:53:02.678Z,96482.22
2024-05-09T16:55:29.694Z,96465.63
2024-05-09T16:57:57.468Z,96479.59
2024-05-09T17:00:35.269Z,96481.31
2024-05-09T17:03:08.518Z,96474.50
2024-05-09T17:05:36.692Z,96463.50
2024-05-09T17:08:04.195Z,96473.56
2024-05-09T17:10:33.800Z,96472.59
2024-05-09T17:13:05.500Z,96471.09
2024-05-09T17:15:33.864Z,96468.56
2024-05-09T17:18:01.801Z,96470.22
2024-05-09T17:20:33.470Z,96471.50
2024-05-09T17:23:03.869Z,96477.53
2024-05-09T17:25:30.727Z,96468.91
2024-05-09T17:27:59.592Z,96469.00
2024-05-09T17:30:32.430Z,96472.06
2024-05-09T17:33:07.810Z,96463.22
2024-05-09T17:35:36.319Z,96472.69
2024-05-09T17:38:03.186Z,96475.19
2024-05-09T17:40:34.850Z,96461.78
2024-05-09T17:43:04.819Z,96468.56
2024-05-09T17:45:32.413Z,96483.75
2024-05-09T17:47:59.634Z,96477.47
2024-05-09T17:50:31.928Z,96478.16
2024-05-09T17:53:02.972Z,96480.69
2024-05-09T17:55:29.956Z,96490.94
2024-05-09T17:57:57.447Z,96473.31
2024-05-09T18:00:33.718Z,96481.19
2024-05-09T18:03:06.391Z,96488.97
2024-05-09T18:05:36.046Z,96469.66
2024-05-09T18:08:03.663Z,96496.94
2024-05-09T18:10:36.335Z,96491.03
2024-05-09T18:13:07.104Z,96481.66
2024-05-09T18:15:34.275Z,96475.97
2024-05-09T18:18:02.030Z,96481.56
2024-05-09T18:20:37.893Z,96482.25
2024-05-09T18:23:10.711Z,96479.47
2024-05-09T18:25:37.611Z,96485.66
2024-05-09T18:28:05.165Z,96481.88
2024-05-09T18:30:35.303Z,96469.94
2024-05-09T18:33:05.398Z,96471.06
2024-05-09T18:35:33.512Z,96477.22
2024-05-09T18:38:00.518Z,96476.16
2024-05-09T18:40:33.996Z,96461.63
2024-05-09T18:43:05.493Z,96502.09
2024-05-09T18:45:33.785Z,96479.38
2024-05-09T18:48:00.851Z,96489.84
2024-05-09T18:50:35.062Z,96500.56
2024-05-09T18:53:12.635Z,96507.31
2024-05-09T18:55:41.134Z,96499.50
2024-05-09T18:58:07.929Z,96504.59
2024-05-09T19:00:38.424Z,96490.25
2024-05-09T19:03:13.057Z,96493.53
2024-05-09T19:05:43.223Z,96499.69
2024-05-09T19:08:11.147Z,96503.19
2024-05-09T19:10:39.032Z,96502.47
2024-05-09T19:13:10.891Z,96518.06
2024-05-09T19:15:47.942Z,96476.31
2024-05-09T19:18:15.451Z,96520.66
2024-05-09T19:20:43.171Z,96508.56
2024-05-09T19:23:11.637Z,96525.69
2024-05-09T19:25:40.610Z,96536.56
2024-05-09T19:28:07.413Z,96533.47
2024-05-09T19:30:39.768Z,96531.91
2024-05-09T19:33:10.808Z,96533.53
2024-05-09T19:35:38.957Z,96491.91
2024-05-09T19:38:06.099Z,96531.19
2024-05-09T19:40:34.350Z,96523.34
2024-05-09T19:43:03.037Z,96527.06
2024-05-09T19:45:30.359Z,96522.34
2024-05-09T19:47:57.488Z,96519.97
2024-05-09T19:50:32.429Z,96518.69
2024-05-09T19:53:08.562Z,96522.13
2024-05-09T19:55:35.344Z,96518.97
2024-05-09T19:58:05.215Z,96529.53
2024-05-09T20:00:39.863Z,96519.03
2024-05-09T20:03:10.210Z,96532.22
2024-05-09T20:05:37.875Z,96524.56
2024-05-09T20:08:05.951Z,96532.75
2024-05-09T20:10:35.181Z,96538.03
2024-05-09T20:13:04.579Z,96541.22
2024-05-09T20:15:34.129Z,96540.69
2024-05-09T20:18:01.128Z,96542.28
2024-05-09T20:20:36.890Z,96524.88
2024-05-09T20:23:07.454Z,96530.97
2024-05-09T20:25:35.129Z,96538.09
2024-05-09T20:28:01.913Z,96534.38
2024-05-09T20:30:32.856Z,96529.38
2024-05-09T20:33:06.973Z,96527.53
2024-05-09T20:35:35.303Z,96527.53
2024-05-09T20:38:03.236Z,96535.69
2024-05-09T20:40:34.733Z,96535.47
2024-05-09T20:43:05.265Z,96547.34
2024-05-09T20:45:32.116Z,96537.56
2024-05-09T20:47:59.086Z,96543.91
2024-05-09T20:50:35.855Z,96537.28
2024-05-09T20:53:09.592Z,96544.44
2024-05-09T20:55:36.785Z,96526.50
2024-05-09T20:58:03.556Z,96493.75
2024-05-09T21:00:38.851Z,96527.78
2024-05-09T21:03:09.310Z,96518.81
2024-05-09T21:05:36.214Z,96533.34
2024-05-09T21:08:03.173Z,96526.47
2024-05-09T21:10:32.590Z,96517.75
2024-05-09T21:13:00.599Z,96538.34
2024-05-09T21:15:27.219Z,96529.09
2024-05-09T21:17:53.824Z,96533.31
2024-05-09T21:20:24.231Z,96526.97
2024-05-09T21:22:57.466Z,96518.00
2024-05-09T21:25:24.108Z,96516.41
2024-05-09T21:27:50.837Z,96523.50
2024-05-09T21:30:26.777Z,96516.94
2024-05-09T21:32:59.617Z,96521.63
2024-05-09T21:35:26.365Z,96532.75
2024-05-09T21:37:53.003Z,96520.56
2024-05-09T21:40:27.285Z,96516.84
2024-05-09T21:43:01.096Z,96527.94
2024-05-09T21:45:27.915Z,96517.88
2024-05-09T21:47:54.783Z,96519.19
2024-05-09T21:50:28.078Z,96521.06
2024-05-09T21:52:59.203Z,96507.84
2024-05-09T21:55:25.862Z,96512.59
2024-05-09T21:57:52.499Z,96519.94
2024-05-09T22:00:28.775Z,96526.81
2024-05-09T22:03:02.472Z,96502.03
2024-05-09T22:05:29.613Z,96525.28
2024-05-09T22:07:57.023Z,96522.56
2024-05-09T22:10:30.527Z,96530.44
2024-05-09T22:13:00.876Z,96501.94
2024-05-09T22:15:27.545Z,96501.66
2024-05-09T22:17:56.354Z,96519.66
2024-05-09T22:20:32.836Z,96507.75
2024-05-09T22:23:04.094Z,96498.25
2024-05-09T22:25:31.861Z,96522.22
2024-05-09T22:27:59.187Z,96518.50
2024-05-09T22:30:34.340Z,96506.31
2024-05-09T22:33:05.806Z,96514.44
2024-05-09T22:35:32.988Z,96526.63
2024-05-09T22:37:59.781Z,96506.25
2024-05-09T22:40:38.153Z,96523.91
2024-05-09T22:43:13.122Z,96521.50
2024-05-09T22:45:39.999Z,96508.59
2024-05-09T22:48:08.087Z,96510.69
2024-05-09T22:50:34.981Z,96499.53
2024-05-09T22:53:01.714Z,96515.91
2024-05-09T22:55:29.943Z,96511.63
2024-05-09T22:57:56.608Z,96509.78
2024-05-09T23:00:31.254Z,96503.75
2024-05-09T23:03:00.453Z,96507.94
2024-05-09T23:05:27.513Z,96502.59
2024-05-09T23:07:54.276Z,96512.09
2024-05-09T23:10:27.302Z,96513.66
2024-05-09T23:12:58.828Z,96503.56
2024-05-09T23:15:25.587Z,96474.34
2024-05-09T23:17:52.403Z,96503.56
2024-05-09T23:20:29.747Z,96490.94
2024-05-09T23:23:03.587Z,96486.69
2024-05-09T23:25:30.282Z,96486.94
2024-05-09T23:27:57.072Z,96466.63
2024-05-09T23:30:33.320Z,96469.25
2024-05-09T23:33:05.702Z,96478.25
2024-05-09T23:35:32.494Z,96479.81
2024-05-09T23:37:59.204Z,96481.31
2024-05-09T23:40:36.884Z,96484.19
2024-05-09T23:43:06.976Z,96496.59
2024-05-09T23:45:34.013Z,96480.97
2024-05-09T23:48:01.167Z,96466.94
2024-05-09T23:50:34.392Z,96489.66
2024-05-09T23:53:04.675Z,96463.72
2024-05-09T23:55:32.036Z,96468.19
2024-05-09T23:57:59.206Z,96473.69
